Time;durP1;ratioP1;P1;durP2;ratioP2;P2;SDS_P1;SDS_P2;PMS_P1;PMS_P2;Temp;Humidity;BMP_temperature;BMP_pressure;BME280_temperature;BME280_humidity;BME280_pressure;Samples;Min_cycle;Max_cycle;Signal;HPM_P1;HPM_P2
2022/12/22 03:25:53;;;;;;;94.38;24.17;;;8.60;99.90;;;;;;5133360;28;20047;-77
2022/12/22 03:28:24;;;;;;;81.18;23.85;;;8.70;99.90;;;;;;5132476;28;20479;-78
2022/12/22 03:31:08;;;;;;;86.93;22.58;;;8.60;99.90;;;;;;5114413;28;20126;-78
2022/12/22 03:33:34;;;;;;;80.55;24.23;;;8.70;99.90;;;;;;5114584;28;20130;-78
2022/12/22 03:36:00;;;;;;;78.05;23.13;;;8.70;99.90;;;;;;5097028;28;20082;-78
2022/12/22 03:38:26;;;;;;;96.18;24.88;;;8.60;99.90;;;;;;5132593;28;20042;-79
2022/12/22 03:40:52;;;;;;;90.13;23.83;;;8.70;99.90;;;;;;5115380;28;20091;-76
2022/12/22 03:48:34;;;;;;;80.75;23.65;;;8.70;99.90;;;;;;5132892;28;20103;-77
2022/12/22 03:51:00;;;;;;;85.50;22.70;;;8.70;99.90;;;;;;5097350;28;20051;-78
2022/12/22 03:53:26;;;;;;;80.90;23.25;;;8.60;99.90;;;;;;5132611;28;20415;-79
2022/12/22 03:55:51;;;;;;;79.00;24.27;;;8.70;99.90;;;;;;5114168;28;20043;-77
2022/12/22 03:58:17;;;;;;;91.18;24.30;;;8.70;99.90;;;;;;5114141;28;20130;-76
2022/12/22 04:00:43;;;;;;;75.57;22.30;;;8.60;99.90;;;;;;5133863;27;20127;-76
2022/12/22 04:03:08;;;;;;;81.72;22.90;;;8.70;99.90;;;;;;5136160;27;20081;-79
2022/12/22 04:05:34;;;;;;;86.65;23.83;;;8.70;99.90;;;;;;5136031;27;20536;-76
2022/12/22 04:08:00;;;;;;;80.25;22.83;;;8.70;99.90;;;;;;5136071;27;20043;-76
2022/12/22 04:13:09;;;;;;;93.10;24.25;;;8.70;99.90;;;;;;5136977;27;20444;-78
2022/12/22 04:15:35;;;;;;;89.97;24.02;;;8.70;99.90;;;;;;5136290;27;20047;-76
2022/12/22 04:18:01;;;;;;;84.28;24.17;;;8.70;99.90;;;;;;5136456;27;20130;-76
2022/12/22 04:20:27;;;;;;;93.25;24.42;;;8.70;99.90;;;;;;5135865;27;20591;-75
2022/12/22 04:22:55;;;;;;;86.43;23.73;;;8.80;99.90;;;;;;5135823;27;20057;-76
2022/12/22 04:25:20;;;;;;;;;;;8.70;99.90;;;;;;5135994;27;20047;-76
2022/12/22 04:27:46;;;;;;;85.37;21.50;;;8.70;99.90;;;;;;5135630;27;19972;-76
2022/12/22 04:30:13;;;;;;;89.03;23.52;;;8.70;99.90;;;;;;5135515;27;20047;-78
2022/12/22 04:32:39;;;;;;;81.60;22.90;;;8.70;99.90;;;;;;5135635;27;20100;-75
2022/12/22 04:35:05;;;;;;;77.43;23.23;;;8.70;99.90;;;;;;5117722;27;20059;-76
2022/12/22 04:37:31;;;;;;;86.70;22.85;;;8.70;99.90;;;;;;5135157;27;20051;-76
2022/12/22 04:39:57;;;;;;;81.18;23.67;;;8.70;99.90;;;;;;5135163;27;20050;-77
2022/12/22 04:42:23;;;;;;;82.82;22.52;;;8.70;99.90;;;;;;5135702;27;20084;-76
2022/12/22 04:44:49;;;;;;;89.75;23.95;;;8.70;99.90;;;;;;5135038;27;20043;-76
2022/12/22 04:47:15;;;;;;;82.68;24.15;;;8.70;99.90;;;;;;5116678;27;20042;-75
2022/12/22 04:49:40;;;;;;;94.78;27.73;;;8.70;99.90;;;;;;5116959;27;20043;-76
2022/12/22 04:52:07;;;;;;;83.63;24.10;;;8.70;99.90;;;;;;5135239;27;20103;-78
2022/12/22 04:54:33;;;;;;;100.57;24.80;;;8.80;99.90;;;;;;5135106;27;20104;-76
2022/12/22 04:56:59;;;;;;;86.32;23.90;;;8.70;99.90;;;;;;5135627;27;20035;-76
2022/12/22 04:59:24;;;;;;;77.45;22.65;;;8.70;99.90;;;;;;5134886;27;20500;-75
2022/12/22 05:01:50;;;;;;;89.00;23.95;;;8.70;99.90;;;;;;5135223;27;20055;-76
2022/12/22 05:04:16;;;;;;;93.65;24.80;;;8.70;99.90;;;;;;5134936;27;20039;-77
2022/12/22 05:06:41;;;;;;;168.45;26.98;;;8.70;99.90;;;;;;5135573;27;20190;-76
2022/12/22 05:09:08;;;;;;;83.65;22.48;;;8.70;99.90;;;;;;5134706;27;20084;-75
2022/12/22 05:11:34;;;;;;;77.50;23.13;;;8.70;99.90;;;;;;5116344;27;20051;-76
2022/12/22 05:14:00;;;;;;;82.30;22.65;;;8.70;99.90;;;;;;5134646;27;20195;-75
2022/12/22 05:16:25;;;;;;;124.10;26.10;;;8.70;99.90;;;;;;5116927;27;20043;-76
2022/12/22 05:18:51;;;;;;;206.18;27.60;;;8.70;99.90;;;;;;5134768;27;20110;-76
2022/12/22 05:21:20;;;;;;;84.53;23.10;;;8.70;99.90;;;;;;5134503;27;20060;-77
2022/12/22 05:23:46;;;;;;;113.28;24.23;;;8.60;99.90;;;;;;5134717;27;20051;-75
2022/12/22 05:26:13;;;;;;;73.40;21.97;;;8.60;99.90;;;;;;5134946;27;20382;-75
2022/12/22 05:28:41;;;;;;;88.85;23.40;;;8.60;99.90;;;;;;5134300;27;20292;-75
2022/12/22 05:31:09;;;;;;;96.25;22.65;;;8.60;99.90;;;;;;5116229;27;20043;-75
2022/12/22 05:33:35;;;;;;;78.43;23.35;;;8.60;99.90;;;;;;5134387;27;20478;-75
2022/12/22 05:36:01;;;;;;;93.95;24.10;;;8.60;99.90;;;;;;5134632;27;20094;-75
2022/12/22 05:38:27;;;;;;;74.53;22.20;;;8.60;99.90;;;;;;5134848;27;20405;-75
2022/12/22 05:40:53;;;;;;;81.35;23.20;;;8.60;99.90;;;;;;5134723;27;20805;-75
2022/12/22 05:43:19;;;;;;;80.03;23.45;;;8.70;99.90;;;;;;5115691;27;20075;-79
2022/12/22 05:45:45;;;;;;;87.53;22.70;;;8.70;99.90;;;;;;5098902;27;20128;-74
2022/12/22 05:48:11;;;;;;;75.78;22.63;;;8.70;99.90;;;;;;5134028;27;20074;-75
2022/12/22 05:50:37;;;;;;;80.15;21.88;;;8.70;99.90;;;;;;5133587;27;20126;-75
2022/12/22 05:53:04;;;;;;;78.97;22.92;;;8.70;99.90;;;;;;5082275;27;20055;-76
2022/12/22 05:55:30;;;;;;;75.55;21.73;;;8.70;99.90;;;;;;5115782;27;20375;-75
2022/12/22 05:57:56;;;;;;;72.78;20.83;;;8.70;99.90;;;;;;5133489;27;20131;-75
2022/12/22 06:00:22;;;;;;;85.05;22.17;;;8.60;99.90;;;;;;5115574;27;20051;-78
2022/12/22 06:02:48;;;;;;;82.70;21.55;;;8.70;99.90;;;;;;5081783;27;20046;-75
2022/12/22 06:05:14;;;;;;;104.03;23.00;;;8.60;99.90;;;;;;5115395;27;20047;-75
2022/12/22 06:07:40;;;;;;;148.30;24.02;;;8.60;99.90;;;;;;5115271;27;20053;-77
2022/12/22 06:10:07;;;;;;;75.55;21.42;;;8.60;99.90;;;;;;5133639;27;20043;-76
2022/12/22 06:12:33;;;;;;;;;;;8.60;99.90;;;;;;5115454;27;20065;-75
2022/12/22 06:14:58;;;;;;;71.05;19.30;;;8.60;99.90;;;;;;5133705;27;19919;-77
2022/12/22 06:17:24;;;;;;;235.10;26.40;;;8.60;99.90;;;;;;5133526;27;20135;-79
2022/12/22 06:19:50;;;;;;;114.35;22.25;;;8.60;99.90;;;;;;5115139;27;20050;-75
2022/12/22 06:22:16;;;;;;;76.90;21.48;;;8.50;99.90;;;;;;5133550;27;20486;-75
2022/12/22 06:24:41;;;;;;;70.72;19.48;;;8.50;99.90;;;;;;5115317;27;20054;-76
2022/12/22 06:27:07;;;;;;;80.53;19.60;;;8.50;99.90;;;;;;5098298;27;20051;-79
2022/12/22 06:29:33;;;;;;;86.97;19.13;;;8.60;99.90;;;;;;5115320;27;20107;-76
2022/12/22 06:31:59;;;;;;;92.63;21.75;;;8.50;99.90;;;;;;5099186;27;20538;-77
2022/12/22 06:34:24;;;;;;;81.38;20.45;;;8.60;99.90;;;;;;5115310;28;20050;-79
2022/12/22 06:36:50;;;;;;;99.75;21.63;;;8.60;99.90;;;;;;5133211;27;20055;-80
2022/12/22 06:39:17;;;;;;;133.25;23.90;;;8.60;99.90;;;;;;5133599;27;20043;-77
2022/12/22 06:44:27;;;;;;;225.88;27.65;;;8.60;99.90;;;;;;5114921;27;20058;-80
2022/12/22 06:46:52;;;;;;;302.40;30.05;;;8.60;99.90;;;;;;5133820;27;20122;-76
2022/12/22 06:49:19;;;;;;;266.88;30.48;;;8.50;99.90;;;;;;5097821;27;20406;-75
2022/12/22 06:51:45;;;;;;;234.65;28.23;;;8.50;99.90;;;;;;5134312;27;20387;-77
2022/12/22 06:54:11;;;;;;;187.00;26.70;;;8.50;99.90;;;;;;5114882;28;20057;-76
2022/12/22 06:56:37;;;;;;;172.93;27.38;;;8.40;99.90;;;;;;5099535;28;20057;-78
2022/12/22 06:59:03;;;;;;;150.80;26.05;;;8.40;99.90;;;;;;5135755;28;20071;-77
2022/12/22 07:01:29;;;;;;;160.57;26.67;;;8.30;99.90;;;;;;5133876;28;20130;-75
2022/12/22 07:03:54;;;;;;;157.73;26.15;;;8.30;99.90;;;;;;5098351;28;20130;-76
2022/12/22 07:06:20;;;;;;;154.57;25.67;;;8.20;99.90;;;;;;5133553;28;20039;-76
2022/12/22 07:08:47;;;;;;;157.60;26.83;;;8.20;99.90;;;;;;5132938;28;20122;-75
2022/12/22 07:11:14;;;;;;;156.95;27.05;;;8.10;99.90;;;;;;5133048;28;20047;-76
2022/12/22 07:13:40;;;;;;;;;;;8.00;99.90;;;;;;5114678;28;20043;-76
2022/12/22 07:16:07;;;;;;;157.03;23.43;;;7.90;99.90;;;;;;5115313;28;19919;-76
2022/12/22 07:18:34;;;;;;;;;;;7.70;99.90;;;;;;5134340;28;20039;-75
2022/12/22 07:21:01;;;;;;;;;;;7.60;99.90;;;;;;5115311;28;19942;-76
2022/12/22 07:23:27;;;;;;;127.82;22.23;;;7.40;99.90;;;;;;5133209;28;19927;-76
2022/12/22 07:25:53;;;;;;;146.23;23.17;;;7.30;99.90;;;;;;5114670;28;20054;-76
2022/12/22 07:28:19;;;;;;;128.07;23.42;;;7.20;99.90;;;;;;5115067;28;20118;-78
2022/12/22 07:30:45;;;;;;;117.57;21.23;;;7.10;99.90;;;;;;5132782;28;20475;-75
2022/12/22 07:33:10;;;;;;;147.48;23.52;;;7.00;99.90;;;;;;5114986;28;20039;-77
2022/12/22 07:35:36;;;;;;;254.98;26.60;;;6.90;99.90;;;;;;5115921;27;20582;-78
2022/12/22 07:38:02;;;;;;;112.15;19.45;;;6.80;99.90;;;;;;5118519;27;20062;-75
2022/12/22 07:40:28;;;;;;;111.65;21.33;;;6.70;99.90;;;;;;5137001;27;20130;-75
2022/12/22 07:42:58;;;;;;;191.00;23.42;;;6.60;99.90;;;;;;5120187;27;20046;-75
2022/12/22 07:45:25;;;;;;;191.85;24.05;;;6.60;99.90;;;;;;5121344;27;20098;-75
2022/12/22 07:47:51;;;;;;;135.35;21.98;;;6.60;99.90;;;;;;5140020;27;20436;-75
2022/12/22 07:50:28;;;;;;;135.35;23.02;;;6.50;99.90;;;;;;5122626;27;20047;-76
2022/12/22 07:52:58;;;;;;;131.73;20.65;;;6.60;99.90;;;;;;5105311;27;20071;-76
2022/12/22 07:55:27;;;;;;;129.52;23.45;;;6.70;99.90;;;;;;5121996;27;20062;-77
2022/12/22 07:57:53;;;;;;;141.82;21.70;;;6.70;99.90;;;;;;5120107;27;20054;-76
2022/12/22 08:00:20;;;;;;;171.82;20.92;;;6.90;99.90;;;;;;5139101;27;20454;-77
2022/12/22 08:02:54;;;;;;;222.15;21.95;;;6.90;99.90;;;;;;5121393;27;20452;-77
2022/12/22 08:05:22;;;;;;;175.95;19.92;;;7.00;99.90;;;;;;5138061;27;20043;-79
2022/12/22 08:07:49;;;;;;;179.50;20.52;;;7.00;99.90;;;;;;5137645;27;20050;-76
2022/12/22 08:10:15;;;;;;;273.67;22.45;;;7.10;99.90;;;;;;5137113;27;20054;-77
2022/12/22 08:12:41;;;;;;;221.18;22.15;;;7.10;99.90;;;;;;5118704;27;20107;-76
2022/12/22 08:15:07;;;;;;;400.55;27.58;;;7.10;99.90;;;;;;5137373;27;20343;-76
2022/12/22 08:17:34;;;;;;;275.37;23.17;;;7.20;99.90;;;;;;5117440;27;20058;-79
2022/12/22 08:20:00;;;;;;;226.75;19.90;;;7.20;99.90;;;;;;5117687;27;20043;-79
2022/12/22 08:22:25;;;;;;;111.18;18.70;;;7.20;99.90;;;;;;5136474;27;20050;-76
2022/12/22 08:24:56;;;;;;;102.18;16.75;;;7.20;99.90;;;;;;5117699;27;20356;-76
2022/12/22 08:27:46;;;;;;;100.25;16.88;;;7.20;99.90;;;;;;5136455;27;20047;-77
2022/12/22 08:30:12;;;;;;;104.47;17.05;;;7.30;99.90;;;;;;5136373;27;20114;-77
2022/12/22 08:32:39;;;;;;;113.80;15.77;;;7.30;99.90;;;;;;5117396;27;20055;-75
2022/12/22 08:35:07;;;;;;;98.95;18.00;;;7.30;99.90;;;;;;5100309;27;20058;-76
2022/12/22 08:37:39;;;;;;;88.18;16.90;;;7.30;99.90;;;;;;5135690;27;20058;-76
2022/12/22 08:40:10;;;;;;;92.75;17.63;;;7.40;99.90;;;;;;5135783;27;20039;-78
2022/12/22 08:42:37;;;;;;;88.28;15.90;;;7.40;99.90;;;;;;5135793;27;20043;-81
2022/12/22 08:45:04;;;;;;;92.38;16.40;;;7.40;99.90;;;;;;5136106;27;20081;-76
2022/12/22 08:47:29;;;;;;;83.50;15.20;;;7.40;99.90;;;;;;5135244;27;20038;-76
2022/12/22 08:49:55;;;;;;;84.05;16.15;;;7.40;99.90;;;;;;5116470;27;20039;-74
2022/12/22 08:52:21;;;;;;;95.55;15.38;;;7.50;99.90;;;;;;5116566;27;20039;-73
2022/12/22 08:54:46;;;;;;;84.15;15.23;;;7.50;99.90;;;;;;5116946;27;20095;-73
2022/12/22 08:57:12;;;;;;;83.55;14.18;;;7.50;99.90;;;;;;5134887;27;20130;-74
2022/12/22 08:59:38;;;;;;;81.40;12.98;;;7.60;99.90;;;;;;5134982;27;20095;-73
2022/12/22 09:02:04;;;;;;;113.45;14.70;;;7.50;99.90;;;;;;5117305;27;20039;-74
2022/12/22 09:04:31;;;;;;;68.63;11.68;;;7.50;99.90;;;;;;5116555;27;20051;-74
2022/12/22 09:06:58;;;;;;;84.07;11.48;;;7.50;99.90;;;;;;5135325;27;20086;-74
2022/12/22 09:09:24;;;;;;;67.38;11.32;;;7.30;99.90;;;;;;5135351;27;20241;-74
2022/12/22 09:11:50;;;;;;;51.67;10.35;;;7.30;99.90;;;;;;5134471;27;20542;-74
2022/12/22 09:14:16;;;;;;;55.63;11.10;;;7.40;99.90;;;;;;5135015;27;20043;-74
2022/12/22 09:16:42;;;;;;;63.30;11.10;;;7.30;99.90;;;;;;5116215;27;20051;-73
2022/12/22 09:19:08;;;;;;;75.13;11.98;;;7.30;99.90;;;;;;5134518;27;20391;-73
2022/12/22 09:21:35;;;;;;;66.28;12.25;;;7.30;99.90;;;;;;5134683;27;20075;-73
2022/12/22 09:24:00;;;;;;;88.20;13.20;;;7.30;99.90;;;;;;5134608;27;20095;-76
2022/12/22 09:26:28;;;;;;;69.85;12.93;;;7.40;99.90;;;;;;5134662;27;20047;-76
2022/12/22 09:28:54;;;;;;;67.80;12.23;;;7.40;99.90;;;;;;5134790;27;20104;-78
2022/12/22 09:31:21;;;;;;;64.22;13.98;;;7.40;99.90;;;;;;5116365;27;20062;-77
2022/12/22 09:33:48;;;;;;;68.13;13.45;;;7.50;99.90;;;;;;5134623;27;20130;-77
2022/12/22 09:36:16;;;;;;;57.17;11.13;;;7.50;99.90;;;;;;5112467;28;20115;-79
2022/12/22 09:38:42;;;;;;;47.95;10.73;;;7.50;99.90;;;;;;5112885;28;20062;-77
2022/12/22 09:41:24;;;;;;;48.83;10.50;;;7.50;99.90;;;;;;5113757;28;20043;-78
2022/12/22 09:43:50;;;;;;;54.05;11.32;;;7.40;99.90;;;;;;5114187;28;20144;-77
2022/12/22 09:46:24;;;;;;;52.63;11.80;;;7.40;99.90;;;;;;5112478;28;20463;-78
2022/12/22 09:48:51;;;;;;;82.13;12.95;;;7.40;99.90;;;;;;5113338;28;20456;-79
2022/12/22 09:51:17;;;;;;;66.63;12.68;;;7.50;99.90;;;;;;5112769;28;20043;-77
2022/12/22 09:53:46;;;;;;;65.88;14.40;;;7.50;99.90;;;;;;5112748;28;20051;-78
2022/12/22 09:56:15;;;;;;;55.58;11.82;;;7.50;99.90;;;;;;5113414;28;20043;-77
2022/12/22 09:58:42;;;;;;;55.17;11.70;;;7.40;99.90;;;;;;5112620;28;20127;-77
2022/12/22 10:01:32;;;;;;;52.80;11.35;;;7.50;99.90;;;;;;5113048;28;20042;-78
2022/12/22 10:04:13;;;;;;;48.50;11.07;;;7.50;99.90;;;;;;5113527;28;20114;-79
2022/12/22 10:07:11;;;;;;;50.72;10.85;;;7.60;99.90;;;;;;5113599;28;20075;-77
2022/12/22 10:09:36;;;;;;;44.08;10.65;;;7.50;99.90;;;;;;5099329;28;20051;-76
2022/12/22 10:12:05;;;;;;;42.05;9.60;;;7.60;99.90;;;;;;5112448;28;20481;-78
2022/12/22 10:14:37;;;;;;;42.13;9.60;;;7.60;99.90;;;;;;5113100;28;20104;-76
2022/12/22 10:17:21;;;;;;;42.50;8.77;;;7.50;99.90;;;;;;5112992;28;20051;-76
2022/12/22 10:19:49;;;;;;;39.95;8.00;;;7.50;99.90;;;;;;5113396;28;20047;-78
2022/12/22 10:22:27;;;;;;;43.55;9.50;;;7.60;99.90;;;;;;5112046;28;20051;-79
2022/12/22 10:24:53;;;;;;;39.17;10.10;;;7.50;99.90;;;;;;5112654;28;20082;-78
2022/12/22 10:27:23;;;;;;;46.72;10.15;;;7.50;99.90;;;;;;5095071;28;20364;-80
2022/12/22 10:29:49;;;;;;;48.08;10.30;;;7.50;99.90;;;;;;5111861;28;20393;-80
2022/12/22 10:32:17;;;;;;;38.10;9.20;;;7.50;99.90;;;;;;5112822;28;20372;-80
2022/12/22 10:35:01;;;;;;;33.50;8.60;;;7.60;99.90;;;;;;5111517;28;20088;-80
2022/12/22 10:37:37;;;;;;;38.45;9.15;;;7.70;99.90;;;;;;5129825;27;20070;-78
2022/12/22 10:40:20;;;;;;;28.70;8.27;;;7.70;99.90;;;;;;5133270;27;20055;-78
2022/12/22 10:42:54;;;;;;;32.63;8.07;;;7.70;99.90;;;;;;5133745;27;20038;-79
2022/12/22 10:45:24;;;;;;;30.08;7.43;;;7.60;99.90;;;;;;5133207;27;20049;-79
2022/12/22 10:47:53;;;;;;;32.80;7.30;;;7.50;99.90;;;;;;5114314;28;20405;-76
2022/12/22 10:50:20;;;;;;;35.72;9.13;;;7.60;99.90;;;;;;5132824;27;20074;-79
2022/12/22 10:52:54;;;;;;;31.55;7.65;;;7.60;99.90;;;;;;5133069;27;20443;-78
2022/12/22 10:55:29;;;;;;;30.90;7.90;;;7.60;99.90;;;;;;5133654;28;20454;-79
2022/12/22 10:58:16;;;;;;;28.10;7.80;;;7.60;99.90;;;;;;5133855;28;20433;-79
2022/12/22 11:00:43;;;;;;;33.30;8.00;;;7.60;99.90;;;;;;5114615;28;20082;-80
2022/12/22 11:03:10;;;;;;;;;;;7.60;99.90;;;;;;5133474;28;20051;-81
2022/12/22 11:05:36;;;;;;;43.55;10.02;;;7.70;99.90;;;;;;5133362;28;20261;-78
2022/12/22 11:08:17;;;;;;;36.67;10.10;;;7.70;99.90;;;;;;5132995;28;20039;-81
2022/12/22 11:10:55;;;;;;;33.63;8.82;;;7.80;99.90;;;;;;5118331;27;20059;-76
2022/12/22 11:13:36;;;;;;;33.28;9.10;;;7.80;99.90;;;;;;5136774;27;20047;-79
2022/12/22 11:16:12;;;;;;;31.95;8.52;;;7.80;99.90;;;;;;5119074;27;20051;-80
2022/12/22 11:18:48;;;;;;;42.25;9.77;;;7.70;99.90;;;;;;5137722;27;20413;-80
2022/12/22 11:21:41;;;;;;;37.55;10.13;;;7.70;99.90;;;;;;5118566;27;20051;-78
2022/12/22 11:24:22;;;;;;;53.05;10.52;;;7.60;99.90;;;;;;5136628;27;20487;-80
2022/12/22 11:27:26;;;;;;;53.42;10.98;;;7.50;99.90;;;;;;5136978;27;20061;-80
2022/12/22 11:29:55;;;;;;;48.63;9.70;;;7.50;99.90;;;;;;5136863;27;20047;-80
2022/12/22 11:32:37;;;;;;;42.97;10.60;;;7.50;99.90;;;;;;5136581;27;20050;-82
2022/12/22 11:35:16;;;;;;;39.00;10.25;;;7.50;99.90;;;;;;5136948;27;20118;-79
2022/12/22 11:37:55;;;;;;;55.28;11.50;;;7.60;99.90;;;;;;5137527;27;20055;-80
2022/12/22 11:40:51;;;;;;;51.25;10.90;;;7.60;99.90;;;;;;5136921;27;20082;-77
2022/12/22 11:43:17;;;;;;;;;;;7.60;99.90;;;;;;5137494;27;20134;-76
2022/12/22 11:46:13;;;;;;;40.10;10.03;;;7.60;99.90;;;;;;5136752;27;19919;-79
2022/12/22 11:49:11;;;;;;;44.63;9.15;;;7.60;99.90;;;;;;5136552;27;20111;-79
2022/12/22 11:52:05;;;;;;;49.05;9.40;;;7.60;99.90;;;;;;5136616;27;20479;-79
2022/12/22 11:54:42;;;;;;;43.50;10.93;;;7.70;99.90;;;;;;5137172;27;20474;-78
2022/12/22 11:57:27;;;;;;;42.13;10.00;;;7.70;99.90;;;;;;5136395;27;20043;-79
2022/12/22 12:00:06;;;;;;;37.20;9.63;;;7.80;99.90;;;;;;5137054;27;20050;-77
2022/12/22 12:03:09;;;;;;;47.03;10.07;;;7.80;99.90;;;;;;5118614;27;20484;-76
2022/12/22 12:06:07;;;;;;;45.38;10.70;;;7.80;99.90;;;;;;5136917;27;20050;-76
2022/12/22 12:09:10;;;;;;;46.88;10.45;;;7.90;99.90;;;;;;5138289;27;20433;-77
2022/12/22 12:11:54;;;;;;;52.97;12.38;;;7.90;99.90;;;;;;5119743;27;20231;-77
2022/12/22 12:15:01;;;;;;;47.55;10.85;;;8.00;99.90;;;;;;5136666;27;20050;-78
2022/12/22 12:17:43;;;;;;;48.75;10.30;;;8.00;99.90;;;;;;5100967;27;20072;-75
2022/12/22 12:20:33;;;;;;;48.97;10.38;;;8.00;99.90;;;;;;5136147;27;20110;-77
2022/12/22 12:23:33;;;;;;;40.58;9.65;;;8.00;99.90;;;;;;5135603;27;20042;-76
2022/12/22 12:26:36;;;;;;;46.83;10.15;;;8.10;99.90;;;;;;5136453;27;20049;-76
2022/12/22 12:29:24;;;;;;;42.88;9.73;;;8.20;99.90;;;;;;5136469;27;20132;-77
2022/12/22 12:31:55;;;;;;;47.95;10.23;;;8.20;99.90;;;;;;5136232;27;20039;-79
2022/12/22 12:34:22;;;;;;;42.20;9.35;;;8.30;99.90;;;;;;5136200;27;20039;-78
2022/12/22 12:36:57;;;;;;;45.83;9.10;;;8.30;99.90;;;;;;5135731;27;20059;-78
2022/12/22 12:39:35;;;;;;;40.47;9.73;;;8.30;99.90;;;;;;5100955;27;20514;-79
2022/12/22 12:42:25;;;;;;;49.58;9.18;;;8.30;99.90;;;;;;5117721;27;20082;-78
2022/12/22 12:44:52;;;;;;;38.40;7.63;;;8.40;99.90;;;;;;5101103;27;20129;-78
2022/12/22 12:47:30;;;;;;;42.33;8.73;;;8.50;99.90;;;;;;5127211;27;20047;-77
2022/12/22 12:50:16;;;;;;;35.35;6.68;;;8.40;99.90;;;;;;5143008;27;20561;-77
2022/12/22 12:52:47;;;;;;;32.58;6.50;;;8.50;99.90;;;;;;5142832;27;20187;-79
2022/12/22 12:55:39;;;;;;;28.73;6.47;;;8.50;99.90;;;;;;5143452;27;20051;-77
2022/12/22 12:58:09;;;;;;;29.92;6.00;;;8.50;99.90;;;;;;5144329;27;20049;-77
2022/12/22 13:00:35;;;;;;;26.48;5.15;;;8.60;99.90;;;;;;5143841;27;20131;-80
2022/12/22 13:03:31;;;;;;;31.02;5.82;;;8.70;99.90;;;;;;5143994;27;20071;-77
2022/12/22 13:05:59;;;;;;;28.87;6.87;;;8.60;99.90;;;;;;5122387;27;20069;-76
2022/12/22 13:08:29;;;;;;;20.73;5.45;;;8.60;99.90;;;;;;5121231;27;20039;-77
2022/12/22 13:10:54;;;;;;;26.15;5.47;;;8.60;99.90;;;;;;5119528;27;20035;-76
2022/12/22 13:13:20;;;;;;;35.10;6.40;;;8.60;99.90;;;;;;5137444;27;20106;-78
2022/12/22 13:15:58;;;;;;;24.42;4.93;;;8.60;99.90;;;;;;5137754;27;20043;-77
2022/12/22 13:18:24;;;;;;;33.53;5.70;;;8.70;99.90;;;;;;5137010;27;20115;-77
2022/12/22 13:21:05;;;;;;;26.50;5.32;;;8.70;99.90;;;;;;5135737;27;20448;-78
2022/12/22 13:23:54;;;;;;;23.38;5.07;;;8.70;99.90;;;;;;5136153;27;20431;-78
2022/12/22 13:26:35;;;;;;;22.48;4.18;;;8.80;99.90;;;;;;5134960;27;20078;-79
2022/12/22 13:29:21;;;;;;;25.80;5.15;;;8.70;99.90;;;;;;5134646;27;20427;-78
2022/12/22 13:32:14;;;;;;;21.37;3.77;;;8.80;99.90;;;;;;5124111;27;20408;-79
2022/12/22 13:34:45;;;;;;;18.92;4.15;;;8.80;99.90;;;;;;5110197;27;20428;-78
2022/12/22 13:37:27;;;;;;;23.00;4.22;;;8.80;99.90;;;;;;5113045;28;20494;-79
2022/12/22 13:40:30;;;;;;;19.33;3.97;;;8.80;99.90;;;;;;5114076;28;20091;-80
2022/12/22 13:43:11;;;;;;;18.05;3.47;;;8.80;99.90;;;;;;5070772;28;20043;-79
2022/12/22 13:45:49;;;;;;;18.60;3.20;;;8.70;99.90;;;;;;5110221;28;20138;-80
2022/12/22 13:48:19;;;;;;;23.35;3.58;;;8.70;99.90;;;;;;5114373;28;20130;-80
2022/12/22 13:50:49;;;;;;;19.10;4.20;;;8.60;99.90;;;;;;5113639;28;20502;-80
2022/12/22 13:53:23;;;;;;;25.63;4.40;;;8.60;99.90;;;;;;5113723;28;20066;-80
2022/12/22 13:55:50;;;;;;;25.17;4.93;;;8.50;99.90;;;;;;5114241;28;20087;-80
2022/12/22 13:58:34;;;;;;;27.45;4.85;;;8.40;99.90;;;;;;5113520;28;20100;-80
2022/12/22 14:01:15;;;;;;;29.58;4.75;;;8.40;99.90;;;;;;5113724;27;20197;-79
2022/12/22 14:03:47;;;;;;;20.38;4.35;;;8.40;99.90;;;;;;5113915;28;20047;-81
2022/12/22 14:06:26;;;;;;;26.77;5.43;;;8.40;99.90;;;;;;5112773;28;20047;-81
2022/12/22 14:09:07;;;;;;;16.83;4.13;;;8.30;99.90;;;;;;5113438;28;20479;-80
2022/12/22 14:11:33;;;;;;;25.27;4.45;;;8.30;99.90;;;;;;5113443;28;20057;-79
2022/12/22 14:13:59;;;;;;;16.05;3.80;;;8.20;99.90;;;;;;5112587;28;20040;-78
2022/12/22 14:16:24;;;;;;;27.75;4.35;;;8.20;99.90;;;;;;5113622;28;20417;-78
2022/12/22 14:18:51;;;;;;;22.08;4.82;;;8.20;99.90;;;;;;5113311;28;20035;-77
2022/12/22 14:21:18;;;;;;;20.35;5.13;;;8.30;99.90;;;;;;5113998;28;20071;-76
2022/12/22 14:23:45;;;;;;;19.50;4.67;;;8.30;99.90;;;;;;5113686;28;20051;-78
2022/12/22 14:26:18;;;;;;;20.77;5.00;;;8.30;99.90;;;;;;5113342;28;20039;-79
2022/12/22 14:28:49;;;;;;;24.70;5.05;;;8.30;99.90;;;;;;5112933;28;20027;-79
2022/12/22 14:31:16;;;;;;;31.40;6.88;;;8.30;99.90;;;;;;5112219;28;20047;-79
2022/12/22 14:34:04;;;;;;;;;;;8.40;99.90;;;;;;5113989;28;20049;-78
2022/12/22 14:36:44;;;;;;;31.38;5.82;;;8.40;99.90;;;;;;5117333;27;19922;-78
2022/12/22 14:39:24;;;;;;;25.85;6.40;;;8.40;99.90;;;;;;5133893;27;20046;-79
2022/12/22 14:41:53;;;;;;;26.63;6.18;;;8.40;99.90;;;;;;5133159;27;20092;-80
2022/12/22 14:44:21;;;;;;;25.20;5.85;;;8.40;99.90;;;;;;5132931;27;20092;-79
2022/12/22 14:47:10;;;;;;;28.98;8.02;;;8.40;99.90;;;;;;5133345;27;20035;-80
2022/12/22 14:49:42;;;;;;;32.03;6.82;;;8.40;99.90;;;;;;5133244;27;20115;-80
2022/12/22 14:52:17;;;;;;;27.30;6.22;;;8.40;99.90;;;;;;5133492;27;20039;-79
2022/12/22 14:54:47;;;;;;;34.00;7.85;;;8.40;99.90;;;;;;5134090;27;20372;-81
2022/12/22 14:57:28;;;;;;;39.20;7.97;;;8.40;99.90;;;;;;5133066;28;20046;-80
2022/12/22 14:59:59;;;;;;;30.55;7.80;;;8.30;99.90;;;;;;5133966;28;20183;-79
2022/12/22 15:02:39;;;;;;;25.58;7.22;;;8.20;99.90;;;;;;5133126;28;20123;-79
2022/12/22 15:05:12;;;;;;;26.25;7.72;;;8.10;99.90;;;;;;5133679;28;20047;-78
2022/12/22 15:07:44;;;;;;;29.40;8.05;;;8.10;99.90;;;;;;5133099;28;20049;-79
2022/12/22 15:10:10;;;;;;;29.90;7.45;;;8.10;99.90;;;;;;5115202;28;20043;-78
2022/12/22 15:12:35;;;;;;;42.67;11.05;;;8.10;99.90;;;;;;5132589;28;20425;-76
2022/12/22 15:15:02;;;;;;;31.55;8.32;;;8.10;99.90;;;;;;5132803;28;20043;-78
2022/12/22 15:17:28;;;;;;;34.88;9.55;;;8.10;99.90;;;;;;5132767;28;20046;-78
2022/12/22 15:19:58;;;;;;;29.65;10.75;;;8.10;99.90;;;;;;5133113;28;20089;-77
2022/12/22 15:22:24;;;;;;;29.40;9.55;;;8.10;99.90;;;;;;5133570;28;20046;-79
2022/12/22 15:24:50;;;;;;;33.72;11.25;;;8.10;99.90;;;;;;5114189;28;20035;-78
2022/12/22 15:27:15;;;;;;;38.90;12.55;;;8.10;99.90;;;;;;5132444;28;20130;-78
2022/12/22 15:29:41;;;;;;;36.38;12.15;;;8.00;99.90;;;;;;5132728;28;20063;-78
2022/12/22 15:32:12;;;;;;;42.17;13.00;;;8.10;99.90;;;;;;5114494;28;20043;-80
2022/12/22 15:34:38;;;;;;;43.67;13.27;;;8.10;99.90;;;;;;5114641;28;20120;-79
2022/12/22 15:37:04;;;;;;;42.47;14.73;;;8.10;99.90;;;;;;5114006;28;20055;-76
2022/12/22 15:39:29;;;;;;;46.78;13.48;;;8.10;99.90;;;;;;5132386;28;20424;-78
2022/12/22 15:41:55;;;;;;;46.58;14.73;;;8.00;99.90;;;;;;5114585;28;20055;-77
2022/12/22 15:44:21;;;;;;;43.97;15.65;;;8.00;99.90;;;;;;5132736;28;20387;-80
2022/12/22 15:46:57;;;;;;;45.63;14.93;;;8.00;99.90;;;;;;5114421;28;20156;-78
2022/12/22 15:49:28;;;;;;;50.10;16.15;;;7.90;99.90;;;;;;5114596;28;20167;-77
2022/12/22 15:51:57;;;;;;;53.75;14.93;;;7.90;99.90;;;;;;5133544;28;20122;-80
2022/12/22 15:54:25;;;;;;;60.00;18.17;;;7.90;99.90;;;;;;5097384;28;20055;-80
2022/12/22 15:56:52;;;;;;;46.60;13.57;;;7.80;99.90;;;;;;5133854;27;20047;-80
2022/12/22 15:59:28;;;;;;;44.00;14.85;;;7.90;99.90;;;;;;5136555;27;20039;-77
2022/12/22 16:01:58;;;;;;;39.55;13.73;;;7.80;99.90;;;;;;5137438;27;20051;-79
2022/12/22 16:04:24;;;;;;;49.00;14.30;;;7.80;99.90;;;;;;5139195;27;20047;-81
2022/12/22 16:06:50;;;;;;;45.35;14.00;;;7.70;99.90;;;;;;5119139;27;20156;-81
2022/12/22 16:09:21;;;;;;;43.67;13.80;;;7.80;99.90;;;;;;5136427;27;20122;-79
2022/12/22 16:11:48;;;;;;;49.30;13.32;;;7.70;99.90;;;;;;5136075;27;20045;-81
2022/12/22 16:14:16;;;;;;;42.03;12.80;;;7.70;99.90;;;;;;5136386;27;20047;-79
2022/12/22 16:16:42;;;;;;;44.95;12.43;;;7.70;99.90;;;;;;5117914;27;20353;-79
2022/12/22 16:19:16;;;;;;;41.90;11.90;;;7.70;99.90;;;;;;5118152;27;20047;-79
2022/12/22 16:21:45;;;;;;;52.42;12.93;;;7.60;99.90;;;;;;5136207;27;20385;-80
2022/12/22 16:24:34;;;;;;;43.20;12.30;;;7.60;99.90;;;;;;5136706;27;20067;-80
2022/12/22 16:27:01;;;;;;;46.88;12.65;;;7.60;99.90;;;;;;5101679;27;20129;-79
2022/12/22 16:29:27;;;;;;;50.70;13.57;;;7.60;99.90;;;;;;5100378;27;20099;-81
2022/12/22 16:31:53;;;;;;;49.47;14.15;;;7.50;99.90;;;;;;5136180;27;20369;-78
2022/12/22 16:34:19;;;;;;;56.05;13.32;;;7.50;99.90;;;;;;5135870;27;20043;-79
2022/12/22 16:36:45;;;;;;;56.65;14.80;;;7.50;99.90;;;;;;5100551;27;20398;-79